sensor_id;sensor_type;location;lat;lon;timestamp;temperature;humidity
23729;DHT22;12045;60.214;24.724;2022-07-10T00:01:05;15.20;99.90
23729;DHT22;12045;60.214;24.724;2022-07-10T00:03:33;15.30;99.90
23729;DHT22;12045;60.214;24.724;2022-07-10T00:06:01;15.20;99.90
23729;DHT22;12045;60.214;24.724;2022-07-10T00:08:29;15.00;99.90
23729;DHT22;12045;60.214;24.724;2022-07-10T00:11:03;14.90;99.90
23729;DHT22;12045;60.214;24.724;2022-07-10T00:13:44;14.80;99.90
23729;DHT22;12045;60.214;24.724;2022-07-10T00:16:20;14.90;99.90
23729;DHT22;12045;60.214;24.724;2022-07-10T00:18:54;15.00;99.90
23729;DHT22;12045;60.214;24.724;2022-07-10T00:21:22;15.10;99.90
23729;DHT22;12045;60.214;24.724;2022-07-10T00:24:05;15.10;99.90
23729;DHT22;12045;60.214;24.724;2022-07-10T00:26:49;15.00;99.90
23729;DHT22;12045;60.214;24.724;2022-07-10T00:29:17;14.90;99.90
23729;DHT22;12045;60.214;24.724;2022-07-10T00:31:58;14.90;99.90
23729;DHT22;12045;60.214;24.724;2022-07-10T00:34:35;14.70;99.90
23729;DHT22;12045;60.214;24.724;2022-07-10T00:37:04;16.20;99.90
23729;DHT22;12045;60.214;24.724;2022-07-10T00:39:32;14.90;99.90
23729;DHT22;12045;60.214;24.724;2022-07-10T00:42:13;15.00;99.90
23729;DHT22;12045;60.214;24.724;2022-07-10T00:44:56;15.10;99.90
23729;DHT22;12045;60.214;24.724;2022-07-10T00:47:44;15.20;99.90
23729;DHT22;12045;60.214;24.724;2022-07-10T00:50:30;15.30;99.90
23729;DHT22;12045;60.214;24.724;2022-07-10T00:53:00;15.40;99.90
23729;DHT22;12045;60.214;24.724;2022-07-10T00:55:42;15.50;99.90
23729;DHT22;12045;60.214;24.724;2022-07-10T00:58:25;15.50;99.90
23729;DHT22;12045;60.214;24.724;2022-07-10T01:01:06;15.50;99.90
23729;DHT22;12045;60.214;24.724;2022-07-10T01:03:47;15.50;99.90
23729;DHT22;12045;60.214;24.724;2022-07-10T01:06:16;15.50;99.90
23729;DHT22;12045;60.214;24.724;2022-07-10T01:08:45;15.60;99.90
23729;DHT22;12045;60.214;24.724;2022-07-10T01:11:20;15.50;99.90
23729;DHT22;12045;60.214;24.724;2022-07-10T01:14:04;15.60;99.90
23729;DHT22;12045;60.214;24.724;2022-07-10T01:16:47;15.50;99.90
23729;DHT22;12045;60.214;24.724;2022-07-10T01:19:15;15.50;99.90
23729;DHT22;12045;60.214;24.724;2022-07-10T01:21:43;15.50;99.90
23729;DHT22;12045;60.214;24.724;2022-07-10T01:24:12;15.50;99.90
23729;DHT22;12045;60.214;24.724;2022-07-10T01:26:41;15.40;99.90
23729;DHT22;12045;60.214;24.724;2022-07-10T01:29:23;15.40;99.90
23729;DHT22;12045;60.214;24.724;2022-07-10T01:32:05;15.30;99.90
23729;DHT22;12045;60.214;24.724;2022-07-10T01:34:44;15.00;99.90
23729;DHT22;12045;60.214;24.724;2022-07-10T01:37:15;14.90;99.90
23729;DHT22;12045;60.214;24.724;2022-07-10T01:39:47;14.70;99.90
23729;DHT22;12045;60.214;24.724;2022-07-10T01:42:29;14.60;99.90
23729;DHT22;12045;60.214;24.724;2022-07-10T01:45:10;14.40;99.90
23729;DHT22;12045;60.214;24.724;2022-07-10T01:47:53;14.20;99.90
23729;DHT22;12045;60.214;24.724;2022-07-10T01:50:36;14.20;99.90
23729;DHT22;12045;60.214;24.724;2022-07-10T01:53:17;14.30;99.90
23729;DHT22;12045;60.214;24.724;2022-07-10T01:56:09;14.30;99.90
23729;DHT22;12045;60.214;24.724;2022-07-10T01:58:51;14.20;99.90
23729;DHT22;12045;60.214;24.724;2022-07-10T02:01:33;14.10;99.90
23729;DHT22;12045;60.214;24.724;2022-07-10T02:04:26;13.90;99.90
23729;DHT22;12045;60.214;24.724;2022-07-10T02:07:24;13.80;99.90
23729;DHT22;12045;60.214;24.724;2022-07-10T02:10:25;13.70;99.90
23729;DHT22;12045;60.214;24.724;2022-07-10T02:13:08;13.60;99.90
23729;DHT22;12045;60.214;24.724;2022-07-10T02:15:54;13.60;99.90
23729;DHT22;12045;60.214;24.724;2022-07-10T02:18:40;13.60;99.90
23729;DHT22;12045;60.214;24.724;2022-07-10T02:21:10;13.60;99.90
23729;DHT22;12045;60.214;24.724;2022-07-10T02:23:55;13.60;99.90
23729;DHT22;12045;60.214;24.724;2022-07-10T02:26:44;13.60;99.90
23729;DHT22;12045;60.214;24.724;2022-07-10T02:29:50;13.70;99.90
23729;DHT22;12045;60.214;24.724;2022-07-10T02:32:39;13.70;99.90
23729;DHT22;12045;60.214;24.724;2022-07-10T02:35:28;13.80;99.90
23729;DHT22;12045;60.214;24.724;2022-07-10T02:38:14;13.80;99.90
23729;DHT22;12045;60.214;24.724;2022-07-10T02:40:57;13.90;99.90
23729;DHT22;12045;60.214;24.724;2022-07-10T02:44:07;13.80;99.90
23729;DHT22;12045;60.214;24.724;2022-07-10T02:46:48;13.90;99.90
23729;DHT22;12045;60.214;24.724;2022-07-10T02:49:34;13.90;99.90
23729;DHT22;12045;60.214;24.724;2022-07-10T02:52:08;14.00;99.90
23729;DHT22;12045;60.214;24.724;2022-07-10T02:54:57;14.00;99.90
23729;DHT22;12045;60.214;24.724;2022-07-10T02:58:04;14.10;99.90
23729;DHT22;12045;60.214;24.724;2022-07-10T03:00:45;14.10;99.90
23729;DHT22;12045;60.214;24.724;2022-07-10T03:03:33;14.10;99.90
23729;DHT22;12045;60.214;24.724;2022-07-10T03:06:17;14.10;99.90
23729;DHT22;12045;60.214;24.724;2022-07-10T03:09:02;14.20;99.90
23729;DHT22;12045;60.214;24.724;2022-07-10T03:11:51;14.40;99.90
23729;DHT22;12045;60.214;24.724;2022-07-10T03:14:58;14.50;99.90
23729;DHT22;12045;60.214;24.724;2022-07-10T03:17:47;14.70;99.90
23729;DHT22;12045;60.214;24.724;2022-07-10T03:20:50;14.80;99.90
23729;DHT22;12045;60.214;24.724;2022-07-10T03:24:08;14.90;99.90
23729;DHT22;12045;60.214;24.724;2022-07-10T03:27:36;14.80;99.90
23729;DHT22;12045;60.214;24.724;2022-07-10T03:30:27;14.70;99.90
23729;DHT22;12045;60.214;24.724;2022-07-10T03:33:09;14.70;99.90
23729;DHT22;12045;60.214;24.724;2022-07-10T03:36:03;14.80;99.90
23729;DHT22;12045;60.214;24.724;2022-07-10T03:39:10;14.80;99.90
23729;DHT22;12045;60.214;24.724;2022-07-10T03:42:21;14.70;99.90
23729;DHT22;12045;60.214;24.724;2022-07-10T03:45:02;14.70;99.90
23729;DHT22;12045;60.214;24.724;2022-07-10T03:48:08;14.80;99.90
23729;DHT22;12045;60.214;24.724;2022-07-10T03:50:52;14.80;99.90
23729;DHT22;12045;60.214;24.724;2022-07-10T03:54:01;14.90;99.90
23729;DHT22;12045;60.214;24.724;2022-07-10T03:57:20;15.00;99.90
23729;DHT22;12045;60.214;24.724;2022-07-10T04:00:24;15.00;99.90
23729;DHT22;12045;60.214;24.724;2022-07-10T04:03:15;15.10;99.90
23729;DHT22;12045;60.214;24.724;2022-07-10T04:05:58;15.10;99.90
23729;DHT22;12045;60.214;24.724;2022-07-10T04:08:46;15.20;99.90
23729;DHT22;12045;60.214;24.724;2022-07-10T04:11:33;15.30;99.90
23729;DHT22;12045;60.214;24.724;2022-07-10T04:14:58;15.30;99.90
23729;DHT22;12045;60.214;24.724;2022-07-10T04:18:10;15.20;99.90
23729;DHT22;12045;60.214;24.724;2022-07-10T04:20:58;15.20;99.90
23729;DHT22;12045;60.214;24.724;2022-07-10T04:24:05;15.20;99.90
23729;DHT22;12045;60.214;24.724;2022-07-10T04:26:48;15.20;99.90
23729;DHT22;12045;60.214;24.724;2022-07-10T04:29:18;15.20;99.90
23729;DHT22;12045;60.214;24.724;2022-07-10T04:32:04;15.30;99.90
23729;DHT22;12045;60.214;24.724;2022-07-10T04:34:49;15.40;99.90
23729;DHT22;12045;60.214;24.724;2022-07-10T04:37:22;15.40;99.90
23729;DHT22;12045;60.214;24.724;2022-07-10T04:40:05;15.50;99.90
23729;DHT22;12045;60.214;24.724;2022-07-10T04:43:10;15.50;99.90
23729;DHT22;12045;60.214;24.724;2022-07-10T04:45:57;15.50;99.90
23729;DHT22;12045;60.214;24.724;2022-07-10T04:48:39;15.50;99.90
23729;DHT22;12045;60.214;24.724;2022-07-10T04:51:33;15.60;99.90
23729;DHT22;12045;60.214;24.724;2022-07-10T04:54:18;15.60;99.90
23729;DHT22;12045;60.214;24.724;2022-07-10T04:57:14;15.70;99.90
23729;DHT22;12045;60.214;24.724;2022-07-10T05:00:18;15.70;99.90
23729;DHT22;12045;60.214;24.724;2022-07-10T05:03:17;15.90;99.90
23729;DHT22;12045;60.214;24.724;2022-07-10T05:06:01;15.90;99.90
23729;DHT22;12045;60.214;24.724;2022-07-10T05:09:05;16.00;99.90
23729;DHT22;12045;60.214;24.724;2022-07-10T05:11:47;16.20;99.90
23729;DHT22;12045;60.214;24.724;2022-07-10T05:14:29;16.30;99.90
23729;DHT22;12045;60.214;24.724;2022-07-10T05:17:10;16.40;99.90
23729;DHT22;12045;60.214;24.724;2022-07-10T05:19:40;16.60;99.90
23729;DHT22;12045;60.214;24.724;2022-07-10T05:22:07;16.60;99.90
23729;DHT22;12045;60.214;24.724;2022-07-10T05:24:45;16.70;99.90
23729;DHT22;12045;60.214;24.724;2022-07-10T05:27:15;16.80;99.90
23729;DHT22;12045;60.214;24.724;2022-07-10T05:29:47;16.80;99.90
23729;DHT22;12045;60.214;24.724;2022-07-10T05:32:15;16.80;99.90
23729;DHT22;12045;60.214;24.724;2022-07-10T05:34:42;16.70;99.90
23729;DHT22;12045;60.214;24.724;2022-07-10T05:37:10;16.80;99.90
23729;DHT22;12045;60.214;24.724;2022-07-10T05:39:37;16.80;99.90
23729;DHT22;12045;60.214;24.724;2022-07-10T05:42:05;16.80;99.90
23729;DHT22;12045;60.214;24.724;2022-07-10T05:44:41;16.80;99.90
23729;DHT22;12045;60.214;24.724;2022-07-10T05:47:09;16.80;99.90
23729;DHT22;12045;60.214;24.724;2022-07-10T05:49:37;16.80;99.90
23729;DHT22;12045;60.214;24.724;2022-07-10T05:52:05;16.80;99.90
23729;DHT22;12045;60.214;24.724;2022-07-10T05:54:33;16.80;99.90
23729;DHT22;12045;60.214;24.724;2022-07-10T05:57:00;16.90;99.90
23729;DHT22;12045;60.214;24.724;2022-07-10T05:59:28;16.90;99.90
23729;DHT22;12045;60.214;24.724;2022-07-10T06:01:55;17.10;99.90
23729;DHT22;12045;60.214;24.724;2022-07-10T06:04:23;17.10;99.90
23729;DHT22;12045;60.214;24.724;2022-07-10T06:06:50;17.10;99.90
23729;DHT22;12045;60.214;24.724;2022-07-10T06:09:18;17.20;99.90
23729;DHT22;12045;60.214;24.724;2022-07-10T06:11:46;17.40;99.90
23729;DHT22;12045;60.214;24.724;2022-07-10T06:14:15;17.40;99.90
23729;DHT22;12045;60.214;24.724;2022-07-10T06:16:43;17.50;99.90
23729;DHT22;12045;60.214;24.724;2022-07-10T06:19:13;17.60;99.90
23729;DHT22;12045;60.214;24.724;2022-07-10T06:21:41;17.70;99.90
23729;DHT22;12045;60.214;24.724;2022-07-10T06:24:09;17.70;99.90
23729;DHT22;12045;60.214;24.724;2022-07-10T06:26:36;17.90;99.90
23729;DHT22;12045;60.214;24.724;2022-07-10T06:29:04;17.90;99.90
23729;DHT22;12045;60.214;24.724;2022-07-10T06:31:31;18.00;99.90
23729;DHT22;12045;60.214;24.724;2022-07-10T06:33:59;17.90;99.90
23729;DHT22;12045;60.214;24.724;2022-07-10T06:36:49;17.80;99.90
23729;DHT22;12045;60.214;24.724;2022-07-10T06:39:17;17.60;99.90
23729;DHT22;12045;60.214;24.724;2022-07-10T06:41:45;17.60;99.90
23729;DHT22;12045;60.214;24.724;2022-07-10T06:44:12;17.60;99.90
23729;DHT22;12045;60.214;24.724;2022-07-10T06:46:40;17.70;99.90
23729;DHT22;12045;60.214;24.724;2022-07-10T06:49:08;17.70;99.90
23729;DHT22;12045;60.214;24.724;2022-07-10T06:51:36;17.80;99.90
23729;DHT22;12045;60.214;24.724;2022-07-10T06:54:03;18.00;99.90
23729;DHT22;12045;60.214;24.724;2022-07-10T06:56:31;18.10;99.90
23729;DHT22;12045;60.214;24.724;2022-07-10T06:58:59;18.50;99.90
23729;DHT22;12045;60.214;24.724;2022-07-10T07:01:27;18.60;99.90
23729;DHT22;12045;60.214;24.724;2022-07-10T07:03:54;18.80;99.90
23729;DHT22;12045;60.214;24.724;2022-07-10T07:06:22;18.90;99.90
23729;DHT22;12045;60.214;24.724;2022-07-10T07:08:49;19.00;99.90
23729;DHT22;12045;60.214;24.724;2022-07-10T07:11:17;19.10;99.90
23729;DHT22;12045;60.214;24.724;2022-07-10T07:13:45;19.00;99.90
23729;DHT22;12045;60.214;24.724;2022-07-10T07:16:12;19.00;99.90
23729;DHT22;12045;60.214;24.724;2022-07-10T07:18:45;19.00;99.90
23729;DHT22;12045;60.214;24.724;2022-07-10T07:21:19;19.20;99.90
23729;DHT22;12045;60.214;24.724;2022-07-10T07:24:05;19.40;99.90
23729;DHT22;12045;60.214;24.724;2022-07-10T07:26:33;19.50;99.90
23729;DHT22;12045;60.214;24.724;2022-07-10T07:29:03;19.60;99.90
23729;DHT22;12045;60.214;24.724;2022-07-10T07:31:31;19.80;99.90
23729;DHT22;12045;60.214;24.724;2022-07-10T07:33:59;20.00;99.90
23729;DHT22;12045;60.214;24.724;2022-07-10T07:36:29;20.10;99.90
23729;DHT22;12045;60.214;24.724;2022-07-10T07:38:58;20.10;99.90
23729;DHT22;12045;60.214;24.724;2022-07-10T07:41:25;20.00;99.90
23729;DHT22;12045;60.214;24.724;2022-07-10T07:44:11;20.10;99.90
23729;DHT22;12045;60.214;24.724;2022-07-10T07:46:39;20.20;99.90
23729;DHT22;12045;60.214;24.724;2022-07-10T07:49:07;20.30;99.90
23729;DHT22;12045;60.214;24.724;2022-07-10T07:51:34;20.50;99.90
23729;DHT22;12045;60.214;24.724;2022-07-10T07:54:02;20.70;99.90
23729;DHT22;12045;60.214;24.724;2022-07-10T07:56:29;20.70;99.90
23729;DHT22;12045;60.214;24.724;2022-07-10T07:58:57;20.60;99.90
23729;DHT22;12045;60.214;24.724;2022-07-10T08:01:25;20.70;99.90
23729;DHT22;12045;60.214;24.724;2022-07-10T08:03:52;20.80;99.90
23729;DHT22;12045;60.214;24.724;2022-07-10T08:06:36;20.90;99.90
23729;DHT22;12045;60.214;24.724;2022-07-10T08:09:04;20.90;99.90
23729;DHT22;12045;60.214;24.724;2022-07-10T08:11:31;20.90;99.90
23729;DHT22;12045;60.214;24.724;2022-07-10T08:13:59;20.70;99.90
23729;DHT22;12045;60.214;24.724;2022-07-10T08:16:27;20.70;99.90
23729;DHT22;12045;60.214;24.724;2022-07-10T08:19:18;20.80;99.90
23729;DHT22;12045;60.214;24.724;2022-07-10T08:21:46;20.90;99.90
23729;DHT22;12045;60.214;24.724;2022-07-10T08:24:13;20.80;99.90
23729;DHT22;12045;60.214;24.724;2022-07-10T08:26:42;20.40;99.90
23729;DHT22;12045;60.214;24.724;2022-07-10T08:29:09;20.20;99.90
23729;DHT22;12045;60.214;24.724;2022-07-10T08:31:37;20.20;99.90
23729;DHT22;12045;60.214;24.724;2022-07-10T08:34:06;20.30;99.90
23729;DHT22;12045;60.214;24.724;2022-07-10T08:36:34;20.20;99.90
23729;DHT22;12045;60.214;24.724;2022-07-10T08:39:07;20.20;99.90
23729;DHT22;12045;60.214;24.724;2022-07-10T08:41:36;20.50;99.90
23729;DHT22;12045;60.214;24.724;2022-07-10T08:44:04;20.80;99.90
23729;DHT22;12045;60.214;24.724;2022-07-10T08:46:31;21.00;99.90
23729;DHT22;12045;60.214;24.724;2022-07-10T08:48:59;21.00;99.90
23729;DHT22;12045;60.214;24.724;2022-07-10T08:51:41;21.00;99.90
23729;DHT22;12045;60.214;24.724;2022-07-10T08:54:08;21.20;99.90
23729;DHT22;12045;60.214;24.724;2022-07-10T08:56:36;21.50;99.90
23729;DHT22;12045;60.214;24.724;2022-07-10T08:59:04;21.60;99.90
23729;DHT22;12045;60.214;24.724;2022-07-10T09:01:32;21.70;99.90
23729;DHT22;12045;60.214;24.724;2022-07-10T09:04:03;21.80;99.90
23729;DHT22;12045;60.214;24.724;2022-07-10T09:06:31;22.00;99.40
23729;DHT22;12045;60.214;24.724;2022-07-10T09:09:05;22.00;98.50
23729;DHT22;12045;60.214;24.724;2022-07-10T09:11:40;22.00;97.70
23729;DHT22;12045;60.214;24.724;2022-07-10T09:14:19;21.90;98.20
23729;DHT22;12045;60.214;24.724;2022-07-10T09:17:01;21.90;99.00
23729;DHT22;12045;60.214;24.724;2022-07-10T09:19:29;21.90;98.60
23729;DHT22;12045;60.214;24.724;2022-07-10T09:22:08;21.90;98.30
23729;DHT22;12045;60.214;24.724;2022-07-10T09:27:04;21.70;97.70
23729;DHT22;12045;60.214;24.724;2022-07-10T09:29:44;21.80;97.80
23729;DHT22;12045;60.214;24.724;2022-07-10T09:32:11;22.10;97.70
23729;DHT22;12045;60.214;24.724;2022-07-10T09:34:40;22.30;97.30
23729;DHT22;12045;60.214;24.724;2022-07-10T09:40:04;22.50;96.60
23729;DHT22;12045;60.214;24.724;2022-07-10T09:42:43;22.50;96.30
23729;DHT22;12045;60.214;24.724;2022-07-10T09:50:27;22.10;94.90
23729;DHT22;12045;60.214;24.724;2022-07-10T09:55:25;22.30;94.70
23729;DHT22;12045;60.214;24.724;2022-07-10T09:57:57;22.50;94.30
23729;DHT22;12045;60.214;24.724;2022-07-10T10:00:28;22.70;94.00
23729;DHT22;12045;60.214;24.724;2022-07-10T10:03:03;22.90;92.50
23729;DHT22;12045;60.214;24.724;2022-07-10T10:08:25;23.40;91.40
23729;DHT22;12045;60.214;24.724;2022-07-10T10:10:53;23.40;91.60
23729;DHT22;12045;60.214;24.724;2022-07-10T10:13:24;23.70;90.70
23729;DHT22;12045;60.214;24.724;2022-07-10T10:15:55;23.70;89.50
23729;DHT22;12045;60.214;24.724;2022-07-10T10:18:24;23.60;90.50
23729;DHT22;12045;60.214;24.724;2022-07-10T10:20:57;23.90;90.30
23729;DHT22;12045;60.214;24.724;2022-07-10T10:23:25;24.40;90.10
23729;DHT22;12045;60.214;24.724;2022-07-10T10:25:56;24.90;88.60
23729;DHT22;12045;60.214;24.724;2022-07-10T10:28:25;25.10;87.30
23729;DHT22;12045;60.214;24.724;2022-07-10T10:30:58;25.30;86.40
23729;DHT22;12045;60.214;24.724;2022-07-10T10:36:11;25.20;86.40
23729;DHT22;12045;60.214;24.724;2022-07-10T10:41:27;25.60;85.70
23729;DHT22;12045;60.214;24.724;2022-07-10T10:47:00;25.50;84.60
23729;DHT22;12045;60.214;24.724;2022-07-10T10:49:50;25.50;84.40
23729;DHT22;12045;60.214;24.724;2022-07-10T10:52:19;25.80;83.80
23729;DHT22;12045;60.214;24.724;2022-07-10T11:00:15;26.50;82.30
23729;DHT22;12045;60.214;24.724;2022-07-10T11:03:16;26.50;80.90
23729;DHT22;12045;60.214;24.724;2022-07-10T11:05:44;26.50;79.50
23729;DHT22;12045;60.214;24.724;2022-07-10T11:08:34;26.30;79.60
23729;DHT22;12045;60.214;24.724;2022-07-10T11:14:00;26.40;80.30
23729;DHT22;12045;60.214;24.724;2022-07-10T11:16:28;26.60;79.50
23729;DHT22;12045;60.214;24.724;2022-07-10T11:19:01;26.80;78.40
23729;DHT22;12045;60.214;24.724;2022-07-10T11:21:28;26.80;80.30
23729;DHT22;12045;60.214;24.724;2022-07-10T11:24:40;26.70;79.10
23729;DHT22;12045;60.214;24.724;2022-07-10T11:30:01;26.30;80.00
23729;DHT22;12045;60.214;24.724;2022-07-10T11:32:29;26.10;81.00
23729;DHT22;12045;60.214;24.724;2022-07-10T11:34:57;26.00;79.50
23729;DHT22;12045;60.214;24.724;2022-07-10T11:37:25;26.10;79.80
23729;DHT22;12045;60.214;24.724;2022-07-10T11:40:13;26.00;77.90
23729;DHT22;12045;60.214;24.724;2022-07-10T11:42:54;25.80;79.60
23729;DHT22;12045;60.214;24.724;2022-07-10T11:45:36;26.10;79.50
23729;DHT22;12045;60.214;24.724;2022-07-10T11:48:05;26.30;79.00
23729;DHT22;12045;60.214;24.724;2022-07-10T11:50:36;26.40;77.40
23729;DHT22;12045;60.214;24.724;2022-07-10T11:53:05;26.40;77.00
23729;DHT22;12045;60.214;24.724;2022-07-10T11:55:33;26.40;76.50
23729;DHT22;12045;60.214;24.724;2022-07-10T11:58:16;26.30;76.40
23729;DHT22;12045;60.214;24.724;2022-07-10T12:01:05;26.50;75.40
23729;DHT22;12045;60.214;24.724;2022-07-10T12:03:34;26.40;75.00
23729;DHT22;12045;60.214;24.724;2022-07-10T12:06:04;26.10;73.70
23729;DHT22;12045;60.214;24.724;2022-07-10T12:08:43;26.20;71.00
23729;DHT22;12045;60.214;24.724;2022-07-10T12:11:13;26.40;71.50
23729;DHT22;12045;60.214;24.724;2022-07-10T12:13:40;26.50;71.20
23729;DHT22;12045;60.214;24.724;2022-07-10T12:16:09;26.70;72.70
23729;DHT22;12045;60.214;24.724;2022-07-10T12:18:47;26.50;73.70
23729;DHT22;12045;60.214;24.724;2022-07-10T12:21:16;26.10;74.70
23729;DHT22;12045;60.214;24.724;2022-07-10T12:23:44;25.80;75.00
23729;DHT22;12045;60.214;24.724;2022-07-10T12:26:16;25.90;73.00
23729;DHT22;12045;60.214;24.724;2022-07-10T12:28:58;25.90;71.40
23729;DHT22;12045;60.214;24.724;2022-07-10T12:31:33;25.80;71.90
23729;DHT22;12045;60.214;24.724;2022-07-10T12:34:04;25.70;73.80
23729;DHT22;12045;60.214;24.724;2022-07-10T12:39:25;26.40;74.30
23729;DHT22;12045;60.214;24.724;2022-07-10T12:42:01;26.60;73.80
23729;DHT22;12045;60.214;24.724;2022-07-10T12:44:34;26.80;73.00
23729;DHT22;12045;60.214;24.724;2022-07-10T12:47:08;26.80;73.40
23729;DHT22;12045;60.214;24.724;2022-07-10T12:49:56;26.60;73.70
23729;DHT22;12045;60.214;24.724;2022-07-10T12:52:30;26.50;71.00
23729;DHT22;12045;60.214;24.724;2022-07-10T13:00:29;26.50;69.50
23729;DHT22;12045;60.214;24.724;2022-07-10T13:03:06;26.50;69.90
23729;DHT22;12045;60.214;24.724;2022-07-10T13:05:39;26.00;70.20
23729;DHT22;12045;60.214;24.724;2022-07-10T13:08:20;26.00;72.20
23729;DHT22;12045;60.214;24.724;2022-07-10T13:10:51;26.00;73.20
23729;DHT22;12045;60.214;24.724;2022-07-10T13:13:33;26.10;72.00
23729;DHT22;12045;60.214;24.724;2022-07-10T13:16:01;25.40;71.60
23729;DHT22;12045;60.214;24.724;2022-07-10T13:18:28;25.10;73.00
23729;DHT22;12045;60.214;24.724;2022-07-10T13:20:58;25.00;72.90
23729;DHT22;12045;60.214;24.724;2022-07-10T13:23:29;25.10;72.30
23729;DHT22;12045;60.214;24.724;2022-07-10T13:25:57;25.20;72.00
23729;DHT22;12045;60.214;24.724;2022-07-10T13:28:26;25.40;72.60
23729;DHT22;12045;60.214;24.724;2022-07-10T13:31:14;25.50;72.80
23729;DHT22;12045;60.214;24.724;2022-07-10T13:33:42;25.50;72.80
23729;DHT22;12045;60.214;24.724;2022-07-10T13:36:09;25.30;73.40
23729;DHT22;12045;60.214;24.724;2022-07-10T13:38:37;25.20;71.50
23729;DHT22;12045;60.214;24.724;2022-07-10T13:41:07;25.10;72.10
23729;DHT22;12045;60.214;24.724;2022-07-10T13:46:43;25.30;72.00
23729;DHT22;12045;60.214;24.724;2022-07-10T13:49:11;25.10;71.40
23729;DHT22;12045;60.214;24.724;2022-07-10T13:51:38;25.00;72.70
23729;DHT22;12045;60.214;24.724;2022-07-10T13:54:06;24.80;71.70
23729;DHT22;12045;60.214;24.724;2022-07-10T13:56:33;24.70;71.80
23729;DHT22;12045;60.214;24.724;2022-07-10T13:59:01;24.60;70.50
23729;DHT22;12045;60.214;24.724;2022-07-10T14:01:29;24.40;70.80
23729;DHT22;12045;60.214;24.724;2022-07-10T14:03:56;24.40;71.30
23729;DHT22;12045;60.214;24.724;2022-07-10T14:06:24;24.20;72.70
23729;DHT22;12045;60.214;24.724;2022-07-10T14:08:52;24.10;71.90
23729;DHT22;12045;60.214;24.724;2022-07-10T14:11:19;23.80;72.40
23729;DHT22;12045;60.214;24.724;2022-07-10T14:13:47;23.70;71.50
23729;DHT22;12045;60.214;24.724;2022-07-10T14:16:15;23.70;69.70
23729;DHT22;12045;60.214;24.724;2022-07-10T14:18:46;23.70;69.80
23729;DHT22;12045;60.214;24.724;2022-07-10T14:21:15;23.50;68.90
23729;DHT22;12045;60.214;24.724;2022-07-10T14:23:43;23.50;70.30
23729;DHT22;12045;60.214;24.724;2022-07-10T14:26:12;23.50;67.70
23729;DHT22;12045;60.214;24.724;2022-07-10T14:28:43;23.50;68.70
23729;DHT22;12045;60.214;24.724;2022-07-10T14:31:11;23.30;69.60
23729;DHT22;12045;60.214;24.724;2022-07-10T14:33:39;23.40;72.00
23729;DHT22;12045;60.214;24.724;2022-07-10T14:36:17;23.40;72.00
23729;DHT22;12045;60.214;24.724;2022-07-10T14:38:45;23.30;71.90
23729;DHT22;12045;60.214;24.724;2022-07-10T14:41:12;23.40;73.50
23729;DHT22;12045;60.214;24.724;2022-07-10T14:43:40;23.40;73.50
23729;DHT22;12045;60.214;24.724;2022-07-10T14:46:08;23.20;72.50
23729;DHT22;12045;60.214;24.724;2022-07-10T14:48:36;23.20;72.50
23729;DHT22;12045;60.214;24.724;2022-07-10T14:51:04;23.10;72.40
23729;DHT22;12045;60.214;24.724;2022-07-10T14:53:32;23.20;72.20
23729;DHT22;12045;60.214;24.724;2022-07-10T14:56:03;23.20;71.70
23729;DHT22;12045;60.214;24.724;2022-07-10T14:58:32;23.10;72.00
23729;DHT22;12045;60.214;24.724;2022-07-10T15:01:19;23.10;72.20
23729;DHT22;12045;60.214;24.724;2022-07-10T15:03:47;23.30;71.40
23729;DHT22;12045;60.214;24.724;2022-07-10T15:06:14;23.40;73.50
23729;DHT22;12045;60.214;24.724;2022-07-10T15:08:42;23.60;73.50
23729;DHT22;12045;60.214;24.724;2022-07-10T15:11:11;23.70;72.60
23729;DHT22;12045;60.214;24.724;2022-07-10T15:13:39;23.70;72.20
23729;DHT22;12045;60.214;24.724;2022-07-10T15:18:42;24.00;71.50
23729;DHT22;12045;60.214;24.724;2022-07-10T15:21:10;23.90;71.70
23729;DHT22;12045;60.214;24.724;2022-07-10T15:23:38;23.80;72.60
23729;DHT22;12045;60.214;24.724;2022-07-10T15:26:06;23.90;72.50
23729;DHT22;12045;60.214;24.724;2022-07-10T15:31:06;23.90;71.30
23729;DHT22;12045;60.214;24.724;2022-07-10T15:33:33;23.90;69.90
23729;DHT22;12045;60.214;24.724;2022-07-10T15:36:04;24.10;69.80
23729;DHT22;12045;60.214;24.724;2022-07-10T15:38:32;24.20;70.00
23729;DHT22;12045;60.214;24.724;2022-07-10T15:41:00;24.10;69.60
23729;DHT22;12045;60.214;24.724;2022-07-10T15:43:28;24.00;69.50
23729;DHT22;12045;60.214;24.724;2022-07-10T15:45:56;23.80;67.70
23729;DHT22;12045;60.214;24.724;2022-07-10T15:48:24;23.60;68.50
23729;DHT22;12045;60.214;24.724;2022-07-10T15:50:52;23.50;68.60
23729;DHT22;12045;60.214;24.724;2022-07-10T15:53:21;23.40;69.30
23729;DHT22;12045;60.214;24.724;2022-07-10T15:55:49;23.30;69.00
23729;DHT22;12045;60.214;24.724;2022-07-10T15:58:17;23.30;68.90
23729;DHT22;12045;60.214;24.724;2022-07-10T16:00:44;23.20;68.60
23729;DHT22;12045;60.214;24.724;2022-07-10T16:03:12;23.10;70.40
23729;DHT22;12045;60.214;24.724;2022-07-10T16:05:40;23.00;71.60
23729;DHT22;12045;60.214;24.724;2022-07-10T16:08:08;23.00;71.90
23729;DHT22;12045;60.214;24.724;2022-07-10T16:10:36;22.90;72.30
23729;DHT22;12045;60.214;24.724;2022-07-10T16:13:03;22.80;75.00
23729;DHT22;12045;60.214;24.724;2022-07-10T16:15:31;22.80;76.10
23729;DHT22;12045;60.214;24.724;2022-07-10T16:17:58;22.90;77.40
23729;DHT22;12045;60.214;24.724;2022-07-10T16:20:26;22.90;77.90
23729;DHT22;12045;60.214;24.724;2022-07-10T16:22:56;22.80;79.10
23729;DHT22;12045;60.214;24.724;2022-07-10T16:25:24;22.90;79.30
23729;DHT22;12045;60.214;24.724;2022-07-10T16:28:10;23.00;78.90
23729;DHT22;12045;60.214;24.724;2022-07-10T16:33:07;22.70;77.50
23729;DHT22;12045;60.214;24.724;2022-07-10T16:35:54;22.60;76.00
23729;DHT22;12045;60.214;24.724;2022-07-10T16:38:36;22.50;76.60
23729;DHT22;12045;60.214;24.724;2022-07-10T16:41:23;22.60;76.90
23729;DHT22;12045;60.214;24.724;2022-07-10T16:44:09;22.50;76.30
23729;DHT22;12045;60.214;24.724;2022-07-10T17:28:39;22.30;76.10
23729;DHT22;12045;60.214;24.724;2022-07-10T17:31:29;22.20;77.40
23729;DHT22;12045;60.214;24.724;2022-07-10T17:34:12;21.90;79.00
23729;DHT22;12045;60.214;24.724;2022-07-10T17:37:10;21.80;80.00
23729;DHT22;12045;60.214;24.724;2022-07-10T17:39:56;21.60;81.70
23729;DHT22;12045;60.214;24.724;2022-07-10T17:42:38;21.60;82.50
23729;DHT22;12045;60.214;24.724;2022-07-10T17:45:21;21.60;82.60